sensor_id;sensor_type;location;lat;lon;timestamp;pressure;altitude;pressure_sealevel;temperature;humidity
25759;BME280;13604;52.496;13.456;2023-06-26T00:01:19;101175.56;;;18.37;100.00
25759;BME280;13604;52.496;13.456;2023-06-26T00:03:47;101148.88;;;18.20;100.00
25759;BME280;13604;52.496;13.456;2023-06-26T00:06:13;101123.06;;;18.03;100.00
25759;BME280;13604;52.496;13.456;2023-06-26T00:08:38;101161.22;;;18.23;100.00
25759;BME280;13604;52.496;13.456;2023-06-26T00:11:03;101147.88;;;18.15;100.00
25759;BME280;13604;52.496;13.456;2023-06-26T00:13:29;101147.91;;;18.16;100.00
25759;BME280;13604;52.496;13.456;2023-06-26T00:15:54;101160.31;;;18.22;100.00
25759;BME280;13604;52.496;13.456;2023-06-26T00:18:19;101137.03;;;17.99;100.00
25759;BME280;13604;52.496;13.456;2023-06-26T00:20:45;101158.22;;;18.06;100.00
25759;BME280;13604;52.496;13.456;2023-06-26T00:23:11;101158.50;;;18.18;100.00
25759;BME280;13604;52.496;13.456;2023-06-26T00:25:38;101122.03;;;17.97;100.00
25759;BME280;13604;52.496;13.456;2023-06-26T00:28:03;101138.78;;;18.00;100.00
25759;BME280;13604;52.496;13.456;2023-06-26T00:30:28;101158.44;;;18.15;100.00
25759;BME280;13604;52.496;13.456;2023-06-26T00:32:54;101164.50;;;18.12;100.00
25759;BME280;13604;52.496;13.456;2023-06-26T00:35:19;101161.03;;;18.13;100.00
25759;BME280;13604;52.496;13.456;2023-06-26T00:37:44;101145.84;;;18.01;100.00
25759;BME280;13604;52.496;13.456;2023-06-26T00:40:10;101152.94;;;18.06;100.00
25759;BME280;13604;52.496;13.456;2023-06-26T00:42:35;101152.94;;;18.06;100.00
25759;BME280;13604;52.496;13.456;2023-06-26T00:45:01;101149.31;;;17.99;100.00
25759;BME280;13604;52.496;13.456;2023-06-26T00:47:26;101130.53;;;17.85;100.00
25759;BME280;13604;52.496;13.456;2023-06-26T00:49:52;101124.38;;;17.83;100.00
25759;BME280;13604;52.496;13.456;2023-06-26T00:52:19;101153.53;;;17.91;100.00
25759;BME280;13604;52.496;13.456;2023-06-26T00:54:44;101127.78;;;17.79;100.00
25759;BME280;13604;52.496;13.456;2023-06-26T00:57:10;101141.09;;;17.85;100.00
25759;BME280;13604;52.496;13.456;2023-06-26T00:59:35;101128.78;;;17.85;100.00
25759;BME280;13604;52.496;13.456;2023-06-26T01:02:01;101075.44;;;17.55;100.00
25759;BME280;13604;52.496;13.456;2023-06-26T01:04:26;101124.53;;;17.91;100.00
25759;BME280;13604;52.496;13.456;2023-06-26T01:06:53;101105.81;;;17.78;100.00
25759;BME280;13604;52.496;13.456;2023-06-26T01:09:20;101128.16;;;17.96;100.00
25759;BME280;13604;52.496;13.456;2023-06-26T01:11:46;101132.78;;;18.06;100.00
25759;BME280;13604;52.496;13.456;2023-06-26T01:14:12;101110.47;;;17.90;100.00
25759;BME280;13604;52.496;13.456;2023-06-26T01:16:38;101107.00;;;17.91;100.00
25759;BME280;13604;52.496;13.456;2023-06-26T01:19:09;101136.28;;;18.07;100.00
25759;BME280;13604;52.496;13.456;2023-06-26T01:21:37;101122.06;;;17.98;100.00
25759;BME280;13604;52.496;13.456;2023-06-26T01:24:12;101105.22;;;17.90;100.00
25759;BME280;13604;52.496;13.456;2023-06-26T01:26:40;101111.44;;;17.94;100.00
25759;BME280;13604;52.496;13.456;2023-06-26T01:29:07;101106.94;;;17.88;100.00
25759;BME280;13604;52.496;13.456;2023-06-26T01:31:35;101102.38;;;17.82;100.00
25759;BME280;13604;52.496;13.456;2023-06-26T01:34:01;101115.69;;;17.87;100.00
25759;BME280;13604;52.496;13.456;2023-06-26T01:36:26;101105.91;;;17.83;100.00
25759;BME280;13604;52.496;13.456;2023-06-26T01:38:52;101121.09;;;17.93;100.00
25759;BME280;13604;52.496;13.456;2023-06-26T01:41:18;101115.69;;;17.87;100.00
25759;BME280;13604;52.496;13.456;2023-06-26T01:46:59;101101.47;;;17.80;100.00
25759;BME280;13604;52.496;13.456;2023-06-26T01:49:30;101112.09;;;17.85;100.00
25759;BME280;13604;52.496;13.456;2023-06-26T01:54:33;101109.28;;;17.77;100.00
25759;BME280;13604;52.496;13.456;2023-06-26T01:57:03;101099.41;;;17.67;100.00
25759;BME280;13604;52.496;13.456;2023-06-26T01:59:32;101077.22;;;17.56;100.00
25759;BME280;13604;52.496;13.456;2023-06-26T02:01:58;101099.50;;;17.70;100.00
25759;BME280;13604;52.496;13.456;2023-06-26T02:04:25;101076.41;;;17.58;100.00
25759;BME280;13604;52.496;13.456;2023-06-26T02:06:50;101084.31;;;17.58;100.00
25759;BME280;13604;52.496;13.456;2023-06-26T02:09:16;101073.66;;;17.52;100.00
25759;BME280;13604;52.496;13.456;2023-06-26T02:11:41;101105.59;;;17.69;100.00
25759;BME280;13604;52.496;13.456;2023-06-26T02:14:06;101094.84;;;17.58;100.00
25759;BME280;13604;52.496;13.456;2023-06-26T02:16:34;101072.69;;;17.48;100.00
25759;BME280;13604;52.496;13.456;2023-06-26T02:18:59;101076.97;;;17.45;100.00
25759;BME280;13604;52.496;13.456;2023-06-26T02:21:24;101060.97;;;17.34;100.00
25759;BME280;13604;52.496;13.456;2023-06-26T02:23:50;101100.84;;;17.53;100.00
25759;BME280;13604;52.496;13.456;2023-06-26T02:26:15;101090.13;;;17.45;100.00
25759;BME280;13604;52.496;13.456;2023-06-26T02:28:40;101064.44;;;17.33;100.00
25759;BME280;13604;52.496;13.456;2023-06-26T02:31:06;101091.94;;;17.46;100.00
25759;BME280;13604;52.496;13.456;2023-06-26T02:33:31;101076.88;;;17.39;100.00
25759;BME280;13604;52.496;13.456;2023-06-26T02:35:57;101081.94;;;17.31;100.00
25759;BME280;13604;52.496;13.456;2023-06-26T02:38:22;101081.22;;;17.38;100.00
25759;BME280;13604;52.496;13.456;2023-06-26T02:40:47;101087.50;;;17.45;100.00
25759;BME280;13604;52.496;13.456;2023-06-26T02:43:13;101077.81;;;17.42;100.00
25759;BME280;13604;52.496;13.456;2023-06-26T02:45:38;101030.41;;;17.03;100.00
25759;BME280;13604;52.496;13.456;2023-06-26T02:48:04;101103.38;;;17.48;100.00
25759;BME280;13604;52.496;13.456;2023-06-26T02:50:29;101100.81;;;17.51;100.00
25759;BME280;13604;52.496;13.456;2023-06-26T02:52:54;101097.38;;;17.54;100.00
25759;BME280;13604;52.496;13.456;2023-06-26T02:55:20;101060.97;;;17.34;100.00
25759;BME280;13604;52.496;13.456;2023-06-26T02:57:46;101084.94;;;17.48;100.00
25759;BME280;13604;52.496;13.456;2023-06-26T03:00:12;101082.28;;;17.46;100.00
25759;BME280;13604;52.496;13.456;2023-06-26T03:02:38;101088.56;;;17.53;100.00
25759;BME280;13604;52.496;13.456;2023-06-26T03:05:03;101068.91;;;17.36;100.00
25759;BME280;13604;52.496;13.456;2023-06-26T03:07:29;101081.47;;;17.49;100.00
25759;BME280;13604;52.496;13.456;2023-06-26T03:09:55;101084.03;;;17.46;100.00
25759;BME280;13604;52.496;13.456;2023-06-26T03:12:20;101051.16;;;17.28;100.00
25759;BME280;13604;52.496;13.456;2023-06-26T03:14:45;101075.16;;;17.41;100.00
25759;BME280;13604;52.496;13.456;2023-06-26T03:17:10;101062.78;;;17.38;100.00
25759;BME280;13604;52.496;13.456;2023-06-26T03:19:36;101082.25;;;17.45;100.00
25759;BME280;13604;52.496;13.456;2023-06-26T03:22:01;101061.72;;;17.30;100.00
25759;BME280;13604;52.496;13.456;2023-06-26T03:24:28;101085.75;;;17.44;100.00
25759;BME280;13604;52.496;13.456;2023-06-26T03:26:54;101071.56;;;17.37;100.00
25759;BME280;13604;52.496;13.456;2023-06-26T03:29:19;101067.94;;;17.32;100.00
25759;BME280;13604;52.496;13.456;2023-06-26T03:31:44;101014.72;;;17.06;100.00
25759;BME280;13604;52.496;13.456;2023-06-26T03:34:09;101079.56;;;17.42;100.00
25759;BME280;13604;52.496;13.456;2023-06-26T03:36:35;101074.31;;;17.42;100.00
25759;BME280;13604;52.496;13.456;2023-06-26T03:39:00;101061.03;;;17.37;100.00
25759;BME280;13604;52.496;13.456;2023-06-26T03:41:26;101043.38;;;17.33;100.00
25759;BME280;13604;52.496;13.456;2023-06-26T03:43:51;101032.81;;;17.32;100.00
25759;BME280;13604;52.496;13.456;2023-06-26T03:46:16;101050.72;;;17.48;100.00
25759;BME280;13604;52.496;13.456;2023-06-26T03:48:42;101065.91;;;17.61;100.00
25759;BME280;13604;52.496;13.456;2023-06-26T03:51:07;101020.78;;;17.43;100.00
25759;BME280;13604;52.496;13.456;2023-06-26T03:53:33;101054.84;;;17.76;100.00
25759;BME280;13604;52.496;13.456;2023-06-26T03:55:58;101055.84;;;17.81;100.00
25759;BME280;13604;52.496;13.456;2023-06-26T03:58:24;101057.66;;;17.85;100.00
25759;BME280;13604;52.496;13.456;2023-06-26T04:00:50;101001.03;;;17.63;100.00
25759;BME280;13604;52.496;13.456;2023-06-26T04:03:15;101057.22;;;18.07;100.00
25759;BME280;13604;52.496;13.456;2023-06-26T04:05:41;101038.81;;;18.08;100.00
25759;BME280;13604;52.496;13.456;2023-06-26T04:08:06;101054.34;;;18.40;100.00
25759;BME280;13604;52.496;13.456;2023-06-26T04:10:31;101025.19;;;18.31;100.00
25759;BME280;13604;52.496;13.456;2023-06-26T04:12:57;101052.09;;;18.63;100.00
25759;BME280;13604;52.496;13.456;2023-06-26T04:15:22;101022.16;;;18.61;100.00
25759;BME280;13604;52.496;13.456;2023-06-26T04:17:47;101033.91;;;18.79;100.00
25759;BME280;13604;52.496;13.456;2023-06-26T04:20:12;100994.16;;;18.69;100.00
25759;BME280;13604;52.496;13.456;2023-06-26T04:22:38;101028.66;;;18.80;100.00
25759;BME280;13604;52.496;13.456;2023-06-26T04:25:03;101050.00;;;18.94;100.00
25759;BME280;13604;52.496;13.456;2023-06-26T04:27:29;101016.50;;;18.88;100.00
25759;BME280;13604;52.496;13.456;2023-06-26T04:29:55;101032.59;;;19.05;100.00
25759;BME280;13604;52.496;13.456;2023-06-26T04:32:20;101053.03;;;19.20;100.00
25759;BME280;13604;52.496;13.456;2023-06-26T04:34:45;101053.09;;;19.23;100.00
25759;BME280;13604;52.496;13.456;2023-06-26T04:37:13;101034.38;;;19.08;100.00
25759;BME280;13604;52.496;13.456;2023-06-26T04:39:41;101030.97;;;19.15;100.00
25759;BME280;13604;52.496;13.456;2023-06-26T04:42:06;101052.22;;;19.26;100.00
25759;BME280;13604;52.496;13.456;2023-06-26T04:44:32;101022.06;;;19.08;100.00
25759;BME280;13604;52.496;13.456;2023-06-26T04:46:57;101050.63;;;19.37;100.00
25759;BME280;13604;52.496;13.456;2023-06-26T04:49:23;101046.34;;;19.45;100.00
25759;BME280;13604;52.496;13.456;2023-06-26T04:51:48;101023.28;;;19.34;100.00
25759;BME280;13604;52.496;13.456;2023-06-26T04:54:16;101035.84;;;19.50;100.00
25759;BME280;13604;52.496;13.456;2023-06-26T04:56:41;101009.16;;;19.28;100.00
25759;BME280;13604;52.496;13.456;2023-06-26T04:59:06;101038.41;;;19.45;100.00
25759;BME280;13604;52.496;13.456;2023-06-26T05:01:32;101035.66;;;19.35;100.00
25759;BME280;13604;52.496;13.456;2023-06-26T05:03:58;101021.72;;;19.46;100.00
25759;BME280;13604;52.496;13.456;2023-06-26T05:06:23;101012.09;;;19.52;100.00
25759;BME280;13604;52.496;13.456;2023-06-26T05:08:48;101010.56;;;19.69;100.00
25759;BME280;13604;52.496;13.456;2023-06-26T05:11:14;101046.25;;;20.10;100.00
25759;BME280;13604;52.496;13.456;2023-06-26T05:13:40;101042.94;;;20.28;100.00
25759;BME280;13604;52.496;13.456;2023-06-26T05:16:05;101021.84;;;20.35;100.00
25759;BME280;13604;52.496;13.456;2023-06-26T05:18:30;101025.66;;;20.65;100.00
25759;BME280;13604;52.496;13.456;2023-06-26T05:20:56;101018.75;;;20.81;97.79
25759;BME280;13604;52.496;13.456;2023-06-26T05:23:23;101023.31;;;21.02;96.27
25759;BME280;13604;52.496;13.456;2023-06-26T05:25:49;101014.56;;;21.16;94.70
25759;BME280;13604;52.496;13.456;2023-06-26T05:28:15;101009.28;;;21.23;92.41
25759;BME280;13604;52.496;13.456;2023-06-26T05:30:41;101032.41;;;21.47;90.96
25759;BME280;13604;52.496;13.456;2023-06-26T05:33:07;101034.22;;;21.59;90.52
25759;BME280;13604;52.496;13.456;2023-06-26T05:35:36;100972.28;;;21.34;89.65
25759;BME280;13604;52.496;13.456;2023-06-26T05:38:01;101009.47;;;21.49;88.78
25759;BME280;13604;52.496;13.456;2023-06-26T05:40:26;100974.84;;;21.14;88.87
25759;BME280;13604;52.496;13.456;2023-06-26T05:42:52;101004.94;;;21.36;87.69
25759;BME280;13604;52.496;13.456;2023-06-26T05:45:18;101011.16;;;21.41;87.96
25759;BME280;13604;52.496;13.456;2023-06-26T05:47:43;101011.16;;;21.37;88.70
25759;BME280;13604;52.496;13.456;2023-06-26T05:50:09;100992.44;;;21.04;89.61
25759;BME280;13604;52.496;13.456;2023-06-26T05:52:35;100991.44;;;20.90;89.86
25759;BME280;13604;52.496;13.456;2023-06-26T05:55:02;100984.34;;;20.83;91.32
25759;BME280;13604;52.496;13.456;2023-06-26T05:57:28;101004.63;;;20.77;90.68
25759;BME280;13604;52.496;13.456;2023-06-26T05:59:53;100955.03;;;20.58;90.76
25759;BME280;13604;52.496;13.456;2023-06-26T06:02:19;101000.41;;;21.07;88.35
25759;BME280;13604;52.496;13.456;2023-06-26T06:04:44;100996.88;;;21.13;87.13
25759;BME280;13604;52.496;13.456;2023-06-26T06:07:10;101010.19;;;21.22;85.51
25759;BME280;13604;52.496;13.456;2023-06-26T06:09:35;101003.19;;;21.40;84.21
25759;BME280;13604;52.496;13.456;2023-06-26T06:12:00;100980.19;;;21.31;83.17
25759;BME280;13604;52.496;13.456;2023-06-26T06:14:27;100989.09;;;21.41;82.29
25759;BME280;13604;52.496;13.456;2023-06-26T06:16:52;100954.63;;;21.39;83.77
25759;BME280;13604;52.496;13.456;2023-06-26T06:19:17;100960.91;;;21.52;83.52
25759;BME280;13604;52.496;13.456;2023-06-26T06:21:43;100945.03;;;21.57;82.22
25759;BME280;13604;52.496;13.456;2023-06-26T06:24:08;100968.94;;;21.92;82.16
25759;BME280;13604;52.496;13.456;2023-06-26T06:26:34;100926.53;;;21.83;80.26
25759;BME280;13604;52.496;13.456;2023-06-26T06:29:00;100970.78;;;22.22;78.26
25759;BME280;13604;52.496;13.456;2023-06-26T06:31:25;100976.09;;;22.30;75.78
25759;BME280;13604;52.496;13.456;2023-06-26T06:33:53;100948.66;;;22.23;76.07
25759;BME280;13604;52.496;13.456;2023-06-26T06:36:18;100960.19;;;22.36;73.48
25759;BME280;13604;52.496;13.456;2023-06-26T06:38:44;100931.88;;;22.12;72.02
25759;BME280;13604;52.496;13.456;2023-06-26T06:41:09;100970.81;;;22.47;73.46
25759;BME280;13604;52.496;13.456;2023-06-26T06:43:34;100960.19;;;22.55;72.61
25759;BME280;13604;52.496;13.456;2023-06-26T06:46:01;100967.28;;;22.67;70.14
25759;BME280;13604;52.496;13.456;2023-06-26T06:48:26;100949.56;;;22.61;69.71
25759;BME280;13604;52.496;13.456;2023-06-26T06:50:51;100968.09;;;22.87;70.87
25759;BME280;13604;52.496;13.456;2023-06-26T06:53:17;100950.38;;;22.89;69.17
25759;BME280;13604;52.496;13.456;2023-06-26T06:55:45;100943.28;;;23.04;68.23
25759;BME280;13604;52.496;13.456;2023-06-26T06:58:10;100934.41;;;23.14;66.03
25759;BME280;13604;52.496;13.456;2023-06-26T07:00:36;100956.47;;;23.42;66.05
25759;BME280;13604;52.496;13.456;2023-06-26T07:03:01;100943.13;;;23.45;66.64
25759;BME280;13604;52.496;13.456;2023-06-26T07:05:26;100974.03;;;23.71;65.83
25759;BME280;13604;52.496;13.456;2023-06-26T07:07:51;100964.38;;;23.56;67.69
25759;BME280;13604;52.496;13.456;2023-06-26T07:10:17;100954.66;;;23.52;66.02
25759;BME280;13604;52.496;13.456;2023-06-26T07:12:42;100948.38;;;23.64;66.19
25759;BME280;13604;52.496;13.456;2023-06-26T07:15:09;100948.38;;;23.64;65.19
25759;BME280;13604;52.496;13.456;2023-06-26T07:17:34;100975.81;;;23.69;65.67
25759;BME280;13604;52.496;13.456;2023-06-26T07:20:01;100935.03;;;23.70;65.78
25759;BME280;13604;52.496;13.456;2023-06-26T07:22:28;100951.78;;;23.92;65.92
25759;BME280;13604;52.496;13.456;2023-06-26T07:24:53;100946.41;;;24.00;64.03
25759;BME280;13604;52.496;13.456;2023-06-26T07:27:19;100968.38;;;24.30;65.48
25759;BME280;13604;52.496;13.456;2023-06-26T07:29:45;100938.19;;;24.31;64.18
25759;BME280;13604;52.496;13.456;2023-06-26T07:32:11;100964.56;;;24.61;63.47
25759;BME280;13604;52.496;13.456;2023-06-26T07:34:37;100942.28;;;24.70;63.05
25759;BME280;13604;52.496;13.456;2023-06-26T07:37:02;100940.56;;;24.66;58.88
25759;BME280;13604;52.496;13.456;2023-06-26T07:39:27;100950.97;;;24.91;60.08
25759;BME280;13604;52.496;13.456;2023-06-26T07:41:53;100949.84;;;25.12;61.41
25759;BME280;13604;52.496;13.456;2023-06-26T07:44:18;100937.41;;;25.11;59.05
25759;BME280;13604;52.496;13.456;2023-06-26T07:46:43;100922.19;;;25.19;60.58
25759;BME280;13604;52.496;13.456;2023-06-26T07:49:11;100943.34;;;25.36;58.95
25759;BME280;13604;52.496;13.456;2023-06-26T07:51:36;100930.91;;;25.37;56.89
25759;BME280;13604;52.496;13.456;2023-06-26T07:54:02;100934.19;;;25.56;55.36
25759;BME280;13604;52.496;13.456;2023-06-26T07:56:27;100938.59;;;25.60;56.28
25759;BME280;13604;52.496;13.456;2023-06-26T07:58:52;100923.69;;;25.45;56.17
25759;BME280;13604;52.496;13.456;2023-06-26T08:01:17;100919.19;;;25.50;56.04
25759;BME280;13604;52.496;13.456;2023-06-26T08:03:43;100922.91;;;25.38;54.72
25759;BME280;13604;52.496;13.456;2023-06-26T08:06:08;100902.47;;;25.37;54.25
25759;BME280;13604;52.496;13.456;2023-06-26T08:08:33;100924.19;;;25.73;54.24
25759;BME280;13604;52.496;13.456;2023-06-26T08:10:59;100917.84;;;25.80;54.18
25759;BME280;13604;52.496;13.456;2023-06-26T08:13:24;100928.72;;;26.25;51.59
25759;BME280;13604;52.496;13.456;2023-06-26T08:15:50;100888.31;;;26.92;52.70
25759;BME280;13604;52.496;13.456;2023-06-26T08:18:15;100885.81;;;27.69;47.95
25759;BME280;13604;52.496;13.456;2023-06-26T08:20:40;100917.09;;;28.39;45.72
25759;BME280;13604;52.496;13.456;2023-06-26T08:23:06;100916.09;;;29.10;43.98
25759;BME280;13604;52.496;13.456;2023-06-26T08:25:31;100910.75;;;28.77;42.67
25759;BME280;13604;52.496;13.456;2023-06-26T08:27:57;100905.66;;;28.68;42.55
25759;BME280;13604;52.496;13.456;2023-06-26T08:30:22;100930.69;;;29.61;40.70
25759;BME280;13604;52.496;13.456;2023-06-26T08:32:50;100906.56;;;30.16;38.29
25759;BME280;13604;52.496;13.456;2023-06-26T08:35:16;100894.22;;;29.54;40.56
25759;BME280;13604;52.496;13.456;2023-06-26T08:37:41;100894.06;;;30.15;38.95
25759;BME280;13604;52.496;13.456;2023-06-26T08:40:07;100891.22;;;30.72;36.63
25759;BME280;13604;52.496;13.456;2023-06-26T08:42:32;100898.06;;;31.06;36.61
25759;BME280;13604;52.496;13.456;2023-06-26T08:44:58;100908.44;;;31.62;34.93
25759;BME280;13604;52.496;13.456;2023-06-26T08:47:23;100906.56;;;31.64;35.62
25759;BME280;13604;52.496;13.456;2023-06-26T08:49:56;100892.88;;;32.56;35.69
25759;BME280;13604;52.496;13.456;2023-06-26T08:52:31;100905.19;;;32.20;32.45
25759;BME280;13604;52.496;13.456;2023-06-26T08:54:59;100893.56;;;33.00;32.14
25759;BME280;13604;52.496;13.456;2023-06-26T08:57:27;100898.78;;;32.23;31.97
25759;BME280;13604;52.496;13.456;2023-06-26T08:59:53;100891.06;;;32.36;32.38
25759;BME280;13604;52.496;13.456;2023-06-26T09:02:19;100903.59;;;32.57;33.08
25759;BME280;13604;52.496;13.456;2023-06-26T09:04:47;100893.72;;;32.15;33.19
25759;BME280;13604;52.496;13.456;2023-06-26T09:07:13;100892.13;;;33.12;32.84
25759;BME280;13604;52.496;13.456;2023-06-26T09:09:38;100886.47;;;33.56;31.71
25759;BME280;13604;52.496;13.456;2023-06-26T09:12:04;100857.19;;;33.66;30.13
25759;BME280;13604;52.496;13.456;2023-06-26T09:14:29;100860.78;;;34.03;29.55
25759;BME280;13604;52.496;13.456;2023-06-26T09:16:54;100870.06;;;34.15;29.64
25759;BME280;13604;52.496;13.456;2023-06-26T09:19:20;100878.97;;;34.17;29.52
25759;BME280;13604;52.496;13.456;2023-06-26T09:21:49;100864.72;;;33.79;30.43
25759;BME280;13604;52.496;13.456;2023-06-26T09:24:14;100861.84;;;33.82;30.04
25759;BME280;13604;52.496;13.456;2023-06-26T09:26:40;100877.69;;;34.77;29.40
25759;BME280;13604;52.496;13.456;2023-06-26T09:29:06;100850.38;;;34.64;28.83
25759;BME280;13604;52.496;13.456;2023-06-26T09:31:38;100863.53;;;35.69;28.48
25759;BME280;13604;52.496;13.456;2023-06-26T09:34:04;100853.94;;;36.40;27.13
25759;BME280;13604;52.496;13.456;2023-06-26T09:36:30;100866.09;;;37.62;25.46
25759;BME280;13604;52.496;13.456;2023-06-26T09:38:59;100870.69;;;38.55;26.16
25759;BME280;13604;52.496;13.456;2023-06-26T09:41:24;100857.66;;;38.07;24.99
25759;BME280;13604;52.496;13.456;2023-06-26T09:43:50;100863.25;;;38.44;26.20
25759;BME280;13604;52.496;13.456;2023-06-26T09:46:17;100843.19;;;38.72;24.67
25759;BME280;13604;52.496;13.456;2023-06-26T09:48:43;100834.91;;;38.61;24.63
25759;BME280;13604;52.496;13.456;2023-06-26T09:51:09;100826.59;;;38.24;24.47
25759;BME280;13604;52.496;13.456;2023-06-26T09:53:35;100843.06;;;38.61;25.06
25759;BME280;13604;52.496;13.456;2023-06-26T09:56:05;100841.34;;;39.60;24.26
25759;BME280;13604;52.496;13.456;2023-06-26T09:58:31;100844.25;;;40.05;22.99
25759;BME280;13604;52.496;13.456;2023-06-26T10:00:57;100832.19;;;38.74;25.14
25759;BME280;13604;52.496;13.456;2023-06-26T10:03:23;100825.31;;;38.81;24.76
25759;BME280;13604;52.496;13.456;2023-06-26T10:05:48;100842.88;;;39.99;23.21
25759;BME280;13604;52.496;13.456;2023-06-26T10:08:14;100833.03;;;38.74;24.37
25759;BME280;13604;52.496;13.456;2023-06-26T10:10:40;100808.69;;;37.94;24.85
25759;BME280;13604;52.496;13.456;2023-06-26T10:13:15;100827.06;;;39.91;24.95
25759;BME280;13604;52.496;13.456;2023-06-26T10:15:41;100823.28;;;40.41;22.19
25759;BME280;13604;52.496;13.456;2023-06-26T10:18:09;100819.19;;;40.80;22.13
25759;BME280;13604;52.496;13.456;2023-06-26T10:20:35;100819.22;;;40.92;22.80
25759;BME280;13604;52.496;13.456;2023-06-26T10:23:01;100821.22;;;41.45;23.14
25759;BME280;13604;52.496;13.456;2023-06-26T10:25:28;100821.94;;;40.92;22.83
25759;BME280;13604;52.496;13.456;2023-06-26T10:27:57;100814.88;;;40.66;22.57
25759;BME280;13604;52.496;13.456;2023-06-26T10:30:26;100800.09;;;40.58;22.01
25759;BME280;13604;52.496;13.456;2023-06-26T10:32:53;100788.31;;;41.02;22.68
25759;BME280;13604;52.496;13.456;2023-06-26T10:35:19;100784.31;;;39.92;22.96
25759;BME280;13604;52.496;13.456;2023-06-26T10:37:49;100793.56;;;41.15;22.56
25759;BME280;13604;52.496;13.456;2023-06-26T10:40:22;100780.56;;;42.05;21.40
25759;BME280;13604;52.496;13.456;2023-06-26T10:42:47;100781.53;;;42.15;21.23
25759;BME280;13604;52.496;13.456;2023-06-26T10:45:20;100776.47;;;41.57;22.22
25759;BME280;13604;52.496;13.456;2023-06-26T10:47:47;100786.31;;;39.90;23.02
25759;BME280;13604;52.496;13.456;2023-06-26T10:50:31;100775.47;;;39.42;23.22
25759;BME280;13604;52.496;13.456;2023-06-26T10:53:22;100759.47;;;37.99;24.78
25759;BME280;13604;52.496;13.456;2023-06-26T10:56:01;100779.63;;;39.59;22.99
25759;BME280;13604;52.496;13.456;2023-06-26T11:03:37;100771.09;;;43.11;19.80
25759;BME280;13604;52.496;13.456;2023-06-26T11:06:09;100753.13;;;42.68;20.01
25759;BME280;13604;52.496;13.456;2023-06-26T11:08:45;100775.81;;;41.21;20.69
25759;BME280;13604;52.496;13.456;2023-06-26T11:11:12;100756.72;;;42.38;20.33
25759;BME280;13604;52.496;13.456;2023-06-26T11:13:38;100761.84;;;41.79;20.74
25759;BME280;13604;52.496;13.456;2023-06-26T11:16:05;100761.56;;;41.82;20.83
25759;BME280;13604;52.496;13.456;2023-06-26T11:18:31;100763.84;;;42.19;20.72
25759;BME280;13604;52.496;13.456;2023-06-26T11:21:05;100769.38;;;43.00;19.79
25759;BME280;13604;52.496;13.456;2023-06-26T11:23:32;100763.72;;;44.67;19.95
25759;BME280;13604;52.496;13.456;2023-06-26T11:26:13;100748.19;;;44.00;18.89
25759;BME280;13604;52.496;13.456;2023-06-26T11:28:38;100741.88;;;44.93;18.87
25759;BME280;13604;52.496;13.456;2023-06-26T11:31:03;100744.06;;;44.89;18.35
25759;BME280;13604;52.496;13.456;2023-06-26T11:33:29;100752.66;;;45.04;18.24
25759;BME280;13604;52.496;13.456;2023-06-26T11:35:54;100737.22;;;44.00;18.59
25759;BME280;13604;52.496;13.456;2023-06-26T11:38:19;100753.41;;;43.74;19.41
25759;BME280;13604;52.496;13.456;2023-06-26T11:40:45;100736.28;;;44.09;19.34
25759;BME280;13604;52.496;13.456;2023-06-26T11:43:10;100730.34;;;45.25;17.86
25759;BME280;13604;52.496;13.456;2023-06-26T11:45:35;100720.78;;;45.11;17.83
25759;BME280;13604;52.496;13.456;2023-06-26T11:48:01;100733.72;;;45.73;17.94
25759;BME280;13604;52.496;13.456;2023-06-26T11:50:27;100728.34;;;43.40;18.94
25759;BME280;13604;52.496;13.456;2023-06-26T11:52:56;100705.00;;;44.02;18.69
25759;BME280;13604;52.496;13.456;2023-06-26T11:55:23;100719.22;;;45.71;18.76
25759;BME280;13604;52.496;13.456;2023-06-26T11:57:49;100708.16;;;45.36;17.35
25759;BME280;13604;52.496;13.456;2023-06-26T12:00:16;100689.94;;;44.99;17.53
25759;BME280;13604;52.496;13.456;2023-06-26T12:02:43;100662.25;;;43.23;18.66
25759;BME280;13604;52.496;13.456;2023-06-26T12:05:08;100671.91;;;43.08;20.26
25759;BME280;13604;52.496;13.456;2023-06-26T12:07:34;100672.63;;;44.43;18.55
25759;BME280;13604;52.496;13.456;2023-06-26T12:10:02;100667.25;;;44.97;17.92
25759;BME280;13604;52.496;13.456;2023-06-26T12:12:28;100667.84;;;42.01;20.30
25759;BME280;13604;52.496;13.456;2023-06-26T12:14:53;100657.84;;;42.11;20.98
25759;BME280;13604;52.496;13.456;2023-06-26T12:17:22;100636.06;;;41.58;20.40
25759;BME280;13604;52.496;13.456;2023-06-26T12:19:48;100655.56;;;41.11;20.49
25759;BME280;13604;52.496;13.456;2023-06-26T12:22:15;100648.31;;;39.18;22.87
25759;BME280;13604;52.496;13.456;2023-06-26T12:24:40;100636.06;;;37.75;24.95
25759;BME280;13604;52.496;13.456;2023-06-26T12:27:12;100638.66;;;39.14;23.54
25759;BME280;13604;52.496;13.456;2023-06-26T12:29:40;100639.53;;;40.86;22.81
25759;BME280;13604;52.496;13.456;2023-06-26T12:32:10;100644.97;;;41.18;21.07
25759;BME280;13604;52.496;13.456;2023-06-26T12:34:37;100637.84;;;40.62;21.30
25759;BME280;13604;52.496;13.456;2023-06-26T12:37:08;100626.06;;;39.00;23.33
25759;BME280;13604;52.496;13.456;2023-06-26T12:42:17;100639.28;;;41.42;20.76
25759;BME280;13604;52.496;13.456;2023-06-26T12:44:43;100645.66;;;39.29;22.80